Dixon, Iowa
Current Conditions -  °F | °C
As of 8:08 AM on Saturday 22 Nov 2014 (Local Time) from KDVN Reporting Station
Haze Haze  
Wind Chill:   Ceiling: 500
Heat Index:   Visibility: 1.7mi
Dew Point:   Wind: 12mph
Humidity: 93%   Direction: 190°S
Pressure: 29.96"   Gusts: NA
Location:  41.74°N, 90.78°W
Report Text: KDVN 221408Z AUTO 19010KT 1 3/4SM BR OVC005 05/04 A2996 RMK AO2 CIG 003V008 T00500039
Loading
Personal Weather Stations






























Interactive Weather Map New forecast layout! Learn more

10-Day Weather Forecast

Advertisements
Track Severe Weather on mobile